Time;durP1;ratioP1;P1;durP2;ratioP2;P2;SDS_P1;SDS_P2;PMS_P1;PMS_P2;Temp;Humidity;BMP_temperature;BMP_pressure;BME280_temperature;BME280_humidity;BME280_pressure;Samples;Min_cycle;Max_cycle;Signal;HPM_P1;HPM_P2
2021/12/15 00:01:11;;;;;;;22.42;12.07;;;;;;;2.69;72.77;93803.72;2067719;69;20539;-68
2021/12/15 00:03:38;;;;;;;23.17;12.23;;;;;;;2.72;73.12;93800.63;2068528;69;20176;-72
2021/12/15 00:06:11;;;;;;;22.92;13.85;;;;;;;2.68;73.43;93797.41;2071320;69;20151;-68
2021/12/15 00:08:37;;;;;;;20.80;12.65;;;;;;;2.75;73.16;93793.25;2071248;69;20554;-72
2021/12/15 00:11:03;;;;;;;21.98;13.38;;;;;;;2.56;74.54;93784.97;2071396;69;20148;-72
2021/12/15 00:13:29;;;;;;;22.05;12.57;;;;;;;2.75;73.37;93779.34;2071348;69;20168;-68
2021/12/15 00:15:55;;;;;;;23.75;13.00;;;;;;;2.63;73.45;93787.13;2071418;69;20148;-69
2021/12/15 00:18:21;;;;;;;21.38;12.43;;;;;;;2.55;73.97;93783.47;2071428;69;20152;-68
2021/12/15 00:20:46;;;;;;;23.77;11.85;;;;;;;2.64;74.06;93780.28;2071064;69;20167;-70
2021/12/15 00:23:12;;;;;;;19.83;11.95;;;;;;;2.68;72.71;93785.53;2071080;69;20224;-69
2021/12/15 00:25:42;;;;;;;22.13;11.55;;;;;;;2.60;73.10;93788.19;2070778;69;20183;-67
2021/12/15 00:28:08;;;;;;;21.23;10.98;;;;;;;2.69;72.66;93790.56;2070681;69;20141;-69
2021/12/15 00:30:35;;;;;;;19.38;11.55;;;;;;;2.70;72.48;93791.31;2068149;69;20234;-67
2021/12/15 00:33:02;;;;;;;22.98;12.98;;;;;;;2.62;73.12;93794.00;2068398;69;20144;-68
2021/12/15 00:35:28;;;;;;;19.88;12.13;;;;;;;2.66;72.96;93796.47;2068130;69;20178;-69
2021/12/15 00:37:54;;;;;;;23.08;11.95;;;;;;;2.59;73.29;93789.47;2068547;69;20503;-69
2021/12/15 00:40:23;;;;;;;22.40;12.00;;;;;;;2.62;73.32;93791.22;2071276;69;20151;-73
2021/12/15 00:42:50;;;;;;;22.38;12.63;;;;;;;2.47;73.49;93799.28;2068471;69;20140;-72
2021/12/15 00:45:16;;;;;;;21.38;12.32;;;;;;;2.52;73.14;93796.44;2071516;69;20136;-71
2021/12/15 00:47:43;;;;;;;21.67;12.60;;;;;;;2.53;72.76;93791.63;2068171;69;20168;-68
2021/12/15 00:50:12;;;;;;;22.48;12.23;;;;;;;2.50;73.02;93787.88;2071654;69;20198;-68
2021/12/15 00:52:40;;;;;;;20.67;12.35;;;;;;;2.53;72.65;93786.81;2071704;69;20610;-67
2021/12/15 00:55:08;;;;;;;20.63;12.43;;;;;;;2.47;73.03;93785.38;2068169;69;20155;-70
2021/12/15 00:57:35;;;;;;;19.38;11.45;;;;;;;2.41;72.70;93779.19;2071712;69;20250;-68
2021/12/15 01:00:04;;;;;;;19.67;12.13;;;;;;;2.15;74.25;93777.84;2068290;69;20675;-67
2021/12/15 01:02:34;;;;;;;21.58;11.80;;;;;;;2.19;75.05;93781.06;2072000;69;20129;-68
2021/12/15 01:05:01;;;;;;;21.52;12.15;;;;;;;2.37;73.81;93789.88;2071772;69;20152;-68
2021/12/15 01:07:27;;;;;;;19.73;11.40;;;;;;;2.45;73.26;93791.50;2071679;69;20206;-68
2021/12/15 01:09:57;;;;;;;23.08;11.68;;;;;;;2.29;74.68;93787.72;2068535;69;20152;-68
2021/12/15 01:20:49;;;;;;;20.40;10.68;;;;;;;2.24;74.47;93804.47;2069778;69;20144;-68
2021/12/15 01:23:22;;;;;;;22.58;12.70;;;;;;;2.02;73.75;93819.50;2066514;69;20160;-67
2021/12/15 01:25:56;;;;;;;20.90;12.30;;;;;;;2.08;73.52;93817.38;2068308;69;20643;-69
2021/12/15 01:28:23;;;;;;;21.52;12.15;;;;;;;2.16;73.42;93820.28;2068361;69;20593;-67
2021/12/15 01:30:54;;;;;;;21.65;11.27;;;;;;;2.11;73.07;93816.31;2061930;69;20195;-67
2021/12/15 01:33:20;;;;;;;21.60;11.68;;;;;;;1.96;73.37;93825.09;2064251;69;20188;-71
2021/12/15 01:35:49;;;;;;;21.35;12.60;;;;;;;1.91;73.49;93820.38;2067351;69;20629;-72
2021/12/15 01:38:18;;;;;;;21.13;12.18;;;;;;;1.94;73.69;93816.56;2064852;69;20176;-70
2021/12/15 01:40:45;;;;;;;17.65;11.00;;;;;;;2.02;72.83;93820.22;2068078;69;20141;-68
2021/12/15 01:49:01;;;;;;;20.35;11.32;;;;;;;2.12;73.51;93826.16;2068520;69;20148;-67
2021/12/15 01:51:27;;;;;;;17.52;9.98;;;;;;;2.08;73.30;93828.47;2065023;69;20556;-69
2021/12/15 01:53:54;;;;;;;20.08;10.15;;;;;;;2.05;72.95;93837.84;2065146;69;20141;-69
2021/12/15 01:56:20;;;;;;;18.48;10.10;;;;;;;2.09;72.80;93832.75;2068466;69;20590;-68
2021/12/15 01:58:46;;;;;;;19.80;10.32;;;;;;;2.07;73.20;93835.31;2065120;69;20584;-72
2021/12/15 02:01:12;;;;;;;20.77;10.27;;;;;;;2.09;73.84;93834.78;2065143;69;20676;-70
2021/12/15 02:03:39;;;;;;;17.52;10.13;;;;;;;2.21;73.42;93830.56;2068507;69;20268;-71
2021/12/15 02:06:06;;;;;;;18.08;9.93;;;;;;;2.21;73.36;93834.09;2068357;69;20572;-71
2021/12/15 02:08:31;;;;;;;19.52;10.32;;;;;;;2.12;74.09;93837.25;2068429;69;20161;-70
2021/12/15 02:10:57;;;;;;;18.80;10.15;;;;;;;2.18;73.86;93834.38;2068419;69;20197;-71
2021/12/15 02:13:23;;;;;;;16.95;10.18;;;;;;;2.19;73.99;93841.44;2065154;69;20155;-70
2021/12/15 02:15:52;;;;;;;18.02;10.55;;;;;;;2.27;73.53;93839.53;2068414;69;20164;-71
2021/12/15 02:18:25;;;;;;;17.33;10.68;;;;;;;2.29;73.42;93834.19;2065156;69;20244;-72
2021/12/15 02:21:05;;;;;;;17.63;10.85;;;;;;;2.19;73.48;93833.09;2068264;69;20133;-74
2021/12/15 02:23:39;;;;;;;19.38;11.20;;;;;;;2.04;74.60;93833.59;2064998;69;20179;-74
2021/12/15 02:26:13;;;;;;;18.80;10.57;;;;;;;2.18;74.11;93835.13;2068405;69;20216;-73
2021/12/15 02:28:47;;;;;;;19.58;10.77;;;;;;;2.23;73.88;93831.50;2068451;69;20149;-71
2021/12/15 02:38:51;;;;;;;33.28;22.17;;;;;;;2.20;74.20;93829.81;2065087;69;20220;-69
2021/12/15 02:41:21;;;;;;;44.38;27.50;;;;;;;2.35;73.43;93825.78;2068412;69;20235;-67
2021/12/15 02:44:04;;;;;;;34.83;22.20;;;;;;;2.38;73.18;93831.03;2065069;69;20163;-68
2021/12/15 02:46:32;;;;;;;29.38;19.23;;;;;;;2.29;73.78;93823.84;2068481;69;20152;-68
2021/12/15 02:48:58;;;;;;;27.65;16.90;;;;;;;2.24;73.41;93823.91;2068379;69;20141;-68
2021/12/15 02:51:25;;;;;;;23.15;15.85;;;;;;;2.03;74.56;93818.19;2068267;69;20518;-68
2021/12/15 02:53:52;;;;;;;26.65;16.52;;;;;;;2.11;73.65;93823.88;2068385;69;20155;-68
2021/12/15 02:56:18;;;;;;;25.88;16.55;;;;;;;2.15;72.95;93819.50;2068307;69;20132;-71
2021/12/15 02:59:02;;;;;;;30.00;18.73;;;;;;;2.08;73.75;93828.47;2068373;69;20144;-71
2021/12/15 03:01:39;;;;;;;25.98;16.95;;;;;;;1.99;74.19;93831.66;2068457;69;20172;-70
2021/12/15 03:06:45;;;;;;;27.75;18.02;;;;;;;1.97;73.86;93836.97;2064902;69;20512;-68
2021/12/15 03:15:17;;;;;;;26.35;17.20;;;;;;;1.95;73.55;93829.16;2068459;69;20153;-71
2021/12/15 03:17:28;;;;;;;25.92;14.05;;;;;;;1.95;72.95;93831.19;2062668;69;20232;-69
2021/12/15 03:19:54;;;;;;;26.15;14.82;;;;;;;1.69;74.70;93823.47;2068349;69;20244;-72
2021/12/15 03:22:19;;;;;;;24.40;15.15;;;;;;;1.74;73.94;93826.19;2068192;69;20232;-70
2021/12/15 03:24:45;;;;;;;20.05;13.52;;;;;;;1.83;73.59;93827.06;2068273;69;20232;-70
2021/12/15 03:27:17;;;;;;;19.75;12.60;;;;;;;1.80;72.76;93819.81;2068300;69;20220;-71
2021/12/15 03:37:48;;;;;;;20.35;12.77;;;;;;;1.57;73.59;93819.38;2068405;69;20224;-71
2021/12/15 03:40:21;;;;;;;21.20;11.85;;;;;;;1.63;72.96;93820.03;2068294;69;20137;-72
2021/12/15 03:42:57;;;;;;;19.70;10.75;;;;;;;1.61;72.78;93819.81;2068253;69;20165;-68
2021/12/15 03:45:32;;;;;;;18.60;10.80;;;;;;;1.56;73.51;93823.41;2068324;69;20619;-68
2021/12/15 03:48:03;;;;;;;20.15;10.93;;;;;;;1.57;73.43;93822.16;2068333;69;20148;-67
2021/12/15 03:50:29;;;;;;;18.58;9.93;;;;;;;1.52;73.85;93826.50;2068106;69;20164;-67
2021/12/15 03:52:56;;;;;;;14.15;8.63;;;;;;;1.48;74.25;93817.72;2064889;69;20152;-68
2021/12/15 03:55:29;;;;;;;15.07;8.55;;;;;;;1.40;73.66;93825.88;2068188;69;20156;-68
2021/12/15 03:57:56;;;;;;;16.05;9.48;;;;;;;1.41;73.40;93827.38;2068217;69;20604;-68
2021/12/15 04:00:24;;;;;;;14.70;8.50;;;;;;;1.41;73.68;93832.19;2068223;69;20195;-68
2021/12/15 04:02:51;;;;;;;14.43;7.78;;;;;;;1.48;73.62;93826.03;2068185;69;20209;-70
2021/12/15 04:05:19;;;;;;;13.95;7.93;;;;;;;1.51;72.90;93819.44;2067993;69;20148;-68
2021/12/15 04:07:46;;;;;;;15.95;9.50;;;;;;;1.33;72.70;93823.72;2068152;69;20311;-69
2021/12/15 04:10:14;;;;;;;15.35;9.15;;;;;;;1.38;73.02;93831.22;2068225;69;20135;-68
2021/12/15 04:12:42;;;;;;;14.85;8.50;;;;;;;1.33;73.20;93829.25;2068217;69;20567;-69
2021/12/15 04:17:56;;;;;;;16.38;8.68;;;;;;;1.37;73.04;93824.16;2064870;69;20139;-69
2021/12/15 04:20:24;;;;;;;16.65;8.32;;;;;;;1.32;72.85;93821.44;2068529;69;20141;-68
2021/12/15 04:22:51;;;;;;;12.68;6.50;;;;;;;1.37;72.71;93828.94;2068214;69;20155;-71
2021/12/15 04:25:28;;;;;;;12.02;7.88;;;;;;;1.35;73.59;93837.06;2068351;69;20543;-68
2021/12/15 04:28:05;;;;;;;13.35;7.40;;;;;;;1.35;72.99;93842.59;2068331;69;20149;-67
2021/12/15 04:30:34;;;;;;;12.32;7.60;;;;;;;1.37;73.52;93837.28;2068239;69;20145;-70
2021/12/15 04:33:07;;;;;;;12.50;7.70;;;;;;;1.31;72.85;93842.16;2068216;69;20135;-69
2021/12/15 04:35:35;;;;;;;13.48;7.35;;;;;;;1.05;74.02;93848.25;2064843;69;20152;-68
2021/12/15 04:38:01;;;;;;;11.75;7.30;;;;;;;1.16;74.32;93853.69;2068324;69;20167;-71
2021/12/15 04:40:26;;;;;;;14.20;8.02;;;;;;;1.10;73.52;93847.41;2068129;69;20144;-69
2021/12/15 04:42:54;;;;;;;15.90;9.40;;;;;;;1.09;73.11;93845.94;2064887;69;20547;-68
2021/12/15 04:45:21;;;;;;;15.27;9.02;;;;;;;0.91;73.85;93853.66;2068150;69;20608;-67
2021/12/15 04:47:50;;;;;;;16.85;9.98;;;;;;;0.90;73.64;93845.88;2064866;69;20162;-70
2021/12/15 04:50:21;;;;;;;17.92;9.52;;;;;;;0.89;73.79;93858.25;2068057;69;20147;-68
2021/12/15 04:52:48;;;;;;;15.77;9.60;;;;;;;0.99;73.58;93860.16;2068151;69;20144;-67
2021/12/15 04:55:14;;;;;;;16.20;9.07;;;;;;;0.90;72.97;93857.72;2068135;69;20224;-70
2021/12/15 04:57:39;;;;;;;15.13;9.65;;;;;;;0.98;72.80;93860.69;2068170;69;20149;-71
2021/12/15 05:00:10;;;;;;;15.80;9.73;;;;;;;0.93;73.04;93867.78;2068107;69;20141;-66
2021/12/15 05:02:41;;;;;;;16.48;9.05;;;;;;;0.91;72.96;93861.25;2068062;69;20143;-70
2021/12/15 05:05:08;;;;;;;49.28;23.40;;;;;;;0.69;74.38;93865.75;2064704;69;20589;-71
2021/12/15 05:07:35;;;;;;;42.15;20.40;;;;;;;0.73;74.99;93863.44;2068111;69;20172;-68
2021/12/15 05:10:03;;;;;;;60.55;29.80;;;;;;;0.86;74.34;93859.28;2068110;69;20316;-69
2021/12/15 05:12:29;;;;;;;53.80;23.75;;;;;;;0.87;73.56;93858.00;2068099;69;20246;-69
2021/12/15 05:14:54;;;;;;;54.78;23.42;;;;;;;0.81;73.56;93863.63;2068096;69;20144;-68
2021/12/15 05:17:20;;;;;;;43.33;18.88;;;;;;;0.87;74.00;93853.25;2068490;69;20152;-67
2021/12/15 05:19:47;;;;;;;22.42;9.48;;;;;;;0.89;73.97;93853.44;2068609;69;20205;-67
2021/12/15 05:22:14;;;;;;;22.88;12.35;;;;;;;0.92;73.91;93855.19;2071302;69;20175;-68
2021/12/15 05:24:42;;;;;;;28.27;13.48;;;;;;;0.87;74.44;93858.78;2065263;69;20218;-68
2021/12/15 05:27:12;;;;;;;26.35;13.38;;;;;;;0.79;73.69;93865.41;2068600;69;20152;-68
2021/12/15 05:29:42;;;;;;;19.73;11.50;;;;;;;0.73;73.47;93866.22;2068653;69;20243;-68
2021/12/15 05:32:11;;;;;;;24.88;12.40;;;;;;;0.76;73.21;93856.09;2068667;69;20147;-69
2021/12/15 05:34:40;;;;;;;25.52;13.43;;;;;;;0.73;73.63;93868.22;2068605;69;20179;-72
2021/12/15 05:37:06;;;;;;;22.88;12.90;;;;;;;0.61;73.87;93866.84;2068510;69;20160;-72
2021/12/15 05:39:33;;;;;;;22.38;12.82;;;;;;;0.63;73.30;93867.81;2068761;69;20164;-71
2021/12/15 05:41:59;;;;;;;20.98;12.52;;;;;;;0.61;73.31;93875.16;2072035;69;20202;-69
2021/12/15 05:44:25;;;;;;;22.90;14.70;;;;;;;0.62;73.11;93884.97;2068613;69;20160;-69
2021/12/15 05:46:54;;;;;;;19.73;12.30;;;;;;;0.59;73.40;93872.88;2070416;69;20195;-71
2021/12/15 05:49:20;;;;;;;21.45;13.25;;;;;;;0.59;73.25;93875.66;2068510;69;20148;-69
2021/12/15 05:51:46;;;;;;;24.05;13.65;;;;;;;0.64;72.93;93883.19;2068413;69;20139;-69
2021/12/15 05:54:12;;;;;;;26.50;16.08;;;;;;;0.58;73.27;93892.81;2068784;69;20225;-70
2021/12/15 05:56:38;;;;;;;26.70;17.50;;;;;;;0.64;73.24;93894.28;2065232;69;20172;-70
2021/12/15 05:59:05;;;;;;;27.35;17.38;;;;;;;0.51;73.66;93891.38;2068583;69;20149;-68
2021/12/15 06:01:31;;;;;;;27.10;17.90;;;;;;;0.55;73.05;93889.06;2068451;69;20147;-69
2021/12/15 06:03:58;;;;;;;25.08;17.08;;;;;;;0.51;73.36;93891.38;2068454;69;20173;-70
2021/12/15 06:06:23;;;;;;;28.85;19.48;;;;;;;0.21;74.31;93905.94;2065124;69;20600;-71
2021/12/15 06:08:49;;;;;;;29.45;20.63;;;;;;;0.24;74.26;93909.69;2065225;69;20232;-67
2021/12/15 06:11:15;;;;;;;29.35;18.65;;;;;;;0.39;73.75;93906.56;2068556;69;20524;-69
2021/12/15 06:13:41;;;;;;;28.13;19.70;;;;;;;0.43;72.86;93910.56;2068590;69;20517;-70
2021/12/15 06:16:06;;;;;;;33.45;22.73;;;;;;;0.59;73.01;93899.84;2068493;69;20149;-72
2021/12/15 06:18:33;;;;;;;27.25;18.70;;;;;;;0.49;73.40;93904.97;2068496;69;20203;-69
2021/12/15 06:20:59;;;;;;;20.30;13.13;;;;;;;0.47;73.77;93908.28;2068376;69;20137;-71
2021/12/15 06:23:26;;;;;;;20.55;13.57;;;;;;;0.49;74.31;93908.50;2068455;69;20209;-69
2021/12/15 06:25:56;;;;;;;21.33;13.13;;;;;;;0.47;73.75;93901.97;2068499;69;20176;-69
2021/12/15 06:28:24;;;;;;;19.67;12.20;;;;;;;0.52;73.65;93908.75;2068433;69;20132;-72
2021/12/15 06:30:51;;;;;;;19.25;12.82;;;;;;;0.58;73.15;93912.97;2068458;69;20227;-69
2021/12/15 06:33:17;;;;;;;19.67;12.00;;;;;;;0.59;73.44;93916.47;2068492;69;20176;-73
2021/12/15 06:35:52;;;;;;;15.73;9.70;;;;;;;0.58;73.07;93906.66;2068379;69;20210;-73
2021/12/15 06:38:23;;;;;;;22.42;11.07;;;;;;;0.56;73.10;93921.06;2068486;69;20585;-72
2021/12/15 06:40:49;;;;;;;31.58;15.85;;;;;;;0.42;74.75;93914.59;2068453;69;20148;-72
2021/12/15 06:43:15;;;;;;;27.25;14.20;;;;;;;0.46;74.09;93914.34;2068592;69;20600;-73
2021/12/15 06:45:56;;;;;;;26.58;14.02;;;;;;;0.55;74.06;93919.56;2068443;69;20637;-68
2021/12/15 06:59:21;;;;;;;32.08;19.08;;;;;;;0.33;73.18;93928.03;2068464;69;20144;-72
2021/12/15 07:01:49;;;;;;;36.88;18.77;;;;;;;0.33;73.57;93933.56;2068399;69;20145;-72
2021/12/15 07:04:15;;;;;;;37.75;19.98;;;;;;;0.36;73.23;93935.28;2068298;69;20145;-67
2021/12/15 07:06:41;;;;;;;32.15;17.92;;;;;;;0.23;73.33;93938.69;2068336;69;20171;-69
2021/12/15 07:09:06;;;;;;;32.58;18.00;;;;;;;0.30;73.49;93940.13;2068530;69;20209;-69
2021/12/15 07:11:32;;;;;;;34.50;17.90;;;;;;;0.43;72.99;93938.28;2068375;69;20253;-71
2021/12/15 07:13:58;;;;;;;24.15;13.35;;;;;;;0.28;74.06;93948.22;2068439;69;20159;-71
2021/12/15 07:16:25;;;;;;;41.30;27.15;;;;;;;0.04;75.02;93951.59;2068383;69;20136;-70
2021/12/15 07:21:22;;;;;;;38.50;24.60;;;;;;;0.24;73.99;93952.00;2068332;69;20145;-70
2021/12/15 07:23:49;;;;;;;38.97;23.98;;;;;;;0.18;74.57;93961.59;2068391;69;20597;-70
2021/12/15 07:26:15;;;;;;;39.95;23.02;;;;;;;0.37;73.74;93958.97;2068357;69;20244;-72
2021/12/15 07:28:41;;;;;;;30.75;19.15;;;;;;;0.48;72.99;93964.44;2068487;69;20145;-75
2021/12/15 07:31:09;;;;;;;36.90;20.67;;;;;;;0.43;73.50;93971.53;2068341;69;20141;-73
2021/12/15 07:33:35;;;;;;;32.80;20.23;;;;;;;0.30;73.92;93976.16;2068350;69;20228;-74
2021/12/15 07:36:03;;;;;;;38.53;21.05;;;;;;;0.35;73.71;93978.13;2068147;69;20184;-70
2021/12/15 07:38:29;;;;;;;34.85;20.30;;;;;;;0.43;73.71;93973.53;2067460;69;20147;-69
2021/12/15 07:40:55;;;;;;;33.35;20.20;;;;;;;0.49;73.96;93983.31;2067690;69;20187;-68
2021/12/15 07:43:24;;;;;;;36.80;22.25;;;;;;;0.42;73.96;93983.88;2070014;69;20239;-68
2021/12/15 07:45:57;;;;;;;32.35;21.23;;;;;;;0.52;73.86;93987.09;2065809;69;20240;-68
2021/12/15 07:48:25;;;;;;;36.20;20.02;;;;;;;0.44;74.71;93986.13;2068371;69;20157;-69
2021/12/15 07:50:55;;;;;;;32.03;20.80;;;;;;;0.52;74.05;93991.88;2064672;69;20218;-73
2021/12/15 07:53:21;;;;;;;33.17;21.00;;;;;;;0.50;74.13;93993.16;2069130;69;20691;-70
2021/12/15 07:55:48;;;;;;;35.88;22.33;;;;;;;0.43;75.04;93995.72;2068362;69;20173;-70
2021/12/15 07:58:18;;;;;;;34.92;21.52;;;;;;;0.47;74.96;93996.19;2069128;69;20249;-67
2021/12/15 08:00:45;;;;;;;34.30;20.67;;;;;;;0.57;74.88;94002.16;2069180;69;20637;-68
2021/12/15 08:03:12;;;;;;;36.60;21.05;;;;;;;0.68;74.79;93999.31;2069184;69;20553;-71
2021/12/15 08:05:40;;;;;;;37.15;21.00;;;;;;;0.79;74.53;93993.69;2068971;69;20196;-70
2021/12/15 08:08:06;;;;;;;46.05;25.15;;;;;;;0.87;74.61;94002.97;2069205;69;20276;-73
2021/12/15 08:10:32;;;;;;;33.03;20.40;;;;;;;0.87;74.28;93997.41;2069136;69;20148;-69
2021/12/15 08:12:58;;;;;;;41.97;23.88;;;;;;;0.90;74.39;93992.84;2069187;69;20649;-68
2021/12/15 08:15:24;;;;;;;40.13;22.98;;;;;;;0.88;74.08;94006.47;2069890;69;20179;-69
2021/12/15 08:17:52;;;;;;;49.50;28.33;;;;;;;0.96;73.92;94019.28;2068082;69;20140;-70
2021/12/15 08:20:21;;;;;;;85.05;46.28;;;;;;;0.99;74.11;94009.16;2070949;69;20140;-68
2021/12/15 08:22:47;;;;;;;63.70;35.55;;;;;;;0.67;74.30;94025.53;2071586;69;20210;-66
2021/12/15 08:25:15;;;;;;;59.28;32.88;;;;;;;0.80;74.56;94019.38;2071635;69;20176;-68
2021/12/15 08:27:41;;;;;;;55.80;31.10;;;;;;;0.80;74.18;94025.69;2071589;69;20160;-66
2021/12/15 08:30:11;;;;;;;50.05;29.15;;;;;;;0.94;74.17;94016.25;2072169;69;20613;-69
2021/12/15 08:32:38;;;;;;;52.13;28.83;;;;;;;0.93;74.84;94016.78;2072839;69;20163;-70
2021/12/15 08:35:04;;;;;;;52.20;29.45;;;;;;;1.15;73.96;94019.38;2073034;69;20279;-68
2021/12/15 08:37:32;;;;;;;53.72;30.73;;;;;;;1.16;73.49;94015.31;2072948;69;20144;-72
2021/12/15 08:39:57;;;;;;;53.55;30.55;;;;;;;1.36;73.59;94021.69;2072729;69;20136;-72
2021/12/15 08:42:23;;;;;;;53.50;30.65;;;;;;;1.41;73.68;94026.44;2073057;69;20150;-73
2021/12/15 08:44:49;;;;;;;51.10;32.20;;;;;;;1.43;74.04;94021.13;2069729;69;20164;-68
2021/12/15 08:47:15;;;;;;;48.85;30.98;;;;;;;1.56;74.31;94021.25;2072783;69;20192;-68
2021/12/15 08:49:41;;;;;;;57.38;31.98;;;;;;;1.66;73.94;94027.22;2071877;69;20151;-69
2021/12/15 08:52:07;;;;;;;54.15;32.85;;;;;;;1.89;73.34;94020.13;2071912;69;20488;-69
2021/12/15 08:54:33;;;;;;;58.35;32.60;;;;;;;2.19;71.97;94022.78;2068638;69;20164;-71
2021/12/15 08:56:59;;;;;;;58.38;33.15;;;;;;;2.38;73.73;94022.78;2072008;69;20529;-69
2021/12/15 08:59:25;;;;;;;55.60;32.72;;;;;;;2.43;73.50;94027.56;2072067;69;20144;-69
2021/12/15 09:01:52;;;;;;;55.28;29.67;;;;;;;2.64;73.88;94030.53;2068564;69;20179;-68
2021/12/15 09:04:18;;;;;;;50.92;29.80;;;;;;;2.93;72.71;94034.44;2068607;69;20140;-73
2021/12/15 09:06:46;;;;;;;44.10;27.20;;;;;;;3.14;72.39;94040.16;2072036;69;20227;-73
2021/12/15 09:09:14;;;;;;;44.67;26.70;;;;;;;3.34;72.00;94049.94;2072129;69;20163;-72
2021/12/15 09:11:41;;;;;;;41.08;23.17;;;;;;;3.54;71.43;94045.84;2071983;69;20499;-75
2021/12/15 09:14:10;;;;;;;36.78;21.88;;;;;;;3.49;71.42;94044.66;2072019;69;20186;-71
2021/12/15 09:16:36;;;;;;;31.40;17.73;;;;;;;3.64;70.33;94035.78;2071542;69;20161;-70
2021/12/15 09:19:04;;;;;;;29.52;18.60;;;;;;;4.00;70.25;94040.97;2072258;69;20145;-70
2021/12/15 09:21:31;;;;;;;29.58;17.55;;;;;;;4.27;70.35;94047.28;2071920;69;20181;-70
2021/12/15 09:23:58;;;;;;;28.52;18.25;;;;;;;4.30;69.68;94043.41;2072211;69;20243;-72
2021/12/15 09:26:23;;;;;;;28.50;17.30;;;;;;;4.38;69.39;94037.94;2068822;69;20618;-68
2021/12/15 09:28:50;;;;;;;25.92;16.50;;;;;;;4.66;68.84;94032.50;2071968;69;20197;-71
2021/12/15 09:31:17;;;;;;;23.45;14.60;;;;;;;4.99;68.22;94035.84;2072034;69;20156;-68
2021/12/15 09:33:46;;;;;;;19.88;12.98;;;;;;;5.29;67.56;94032.59;2071976;69;20160;-70
2021/12/15 09:36:13;;;;;;;20.73;13.32;;;;;;;5.73;68.36;94032.81;2071855;69;20521;-72
2021/12/15 09:38:41;;;;;;;21.08;11.55;;;;;;;5.73;67.39;94036.34;2072102;69;20148;-71
2021/12/15 09:41:09;;;;;;;23.95;14.10;;;;;;;5.79;65.82;94033.41;2072039;69;20158;-70
2021/12/15 09:43:36;;;;;;;20.88;11.55;;;;;;;5.77;63.04;94024.78;2071928;69;20148;-72
2021/12/15 09:46:11;;;;;;;17.50;11.95;;;;;;;5.62;65.07;94031.03;2072073;69;20156;-73
2021/12/15 10:18:49;;;;;;;11.88;7.78;;;;;;;7.32;58.12;94018.03;2067987;69;20144;-69
2021/12/15 10:21:34;;;;;;;9.75;6.70;;;;;;;8.26;55.71;94011.84;2070009;69;20160;-69
2021/12/15 10:24:00;;;;;;;8.63;6.32;;;;;;;8.66;55.72;94014.78;2071051;69;20159;-69
2021/12/15 10:26:26;;;;;;;10.48;6.32;;;;;;;8.12;54.09;94012.06;2071142;69;20255;-69
2021/12/15 10:28:53;;;;;;;10.15;7.20;;;;;;;8.04;53.63;94014.13;2071736;69;20656;-69
2021/12/15 10:31:27;;;;;;;12.07;7.63;;;;;;;8.10;55.03;94002.72;2067810;69;20183;-70
2021/12/15 10:33:58;;;;;;;10.00;7.05;;;;;;;8.76;54.16;93998.06;2071763;69;20171;-72
2021/12/15 10:36:32;;;;;;;11.07;7.63;;;;;;;9.13;52.87;94002.00;2071571;69;20224;-70
2021/12/15 10:39:04;;;;;;;11.65;7.78;;;;;;;9.48;51.33;94002.13;2068442;69;20124;-73
2021/12/15 10:41:42;;;;;;;10.77;6.72;;;;;;;9.75;50.80;93999.50;2071589;69;20140;-70
2021/12/15 10:44:15;;;;;;;10.43;6.65;;;;;;;10.28;50.07;93998.31;2071765;69;20143;-71
2021/12/15 10:46:50;;;;;;;9.05;6.47;;;;;;;10.86;48.20;93993.16;2071767;69;20156;-70
2021/12/15 10:49:19;;;;;;;16.10;11.38;;;;;;;11.26;47.29;93990.00;2071719;69;20275;-70
2021/12/15 10:51:44;;;;;;;20.75;12.93;;;;;;;10.30;47.06;93985.13;2071616;69;20141;-70
2021/12/15 10:54:35;;;;;;;16.50;9.18;;;;;;;11.09;47.31;93984.44;2071585;69;20155;-72
2021/12/15 10:57:05;;;;;;;13.40;9.95;;;;;;;12.01;45.71;93981.00;2071591;69;20148;-73
2021/12/15 10:59:34;;;;;;;15.52;11.20;;;;;;;12.69;43.56;93981.06;2071599;69;20232;-70
2021/12/15 11:02:04;;;;;;;15.93;11.35;;;;;;;13.11;41.68;93991.16;2071700;69;20235;-72
2021/12/15 11:04:30;;;;;;;15.02;11.00;;;;;;;12.25;43.98;93984.91;2067761;69;20172;-70
2021/12/15 11:07:16;;;;;;;14.63;11.32;;;;;;;11.39;43.11;93986.06;2068279;69;20184;-71
2021/12/15 11:09:47;;;;;;;19.30;12.70;;;;;;;11.08;44.74;93977.28;2068033;69;20143;-70
2021/12/15 11:12:21;;;;;;;20.83;13.05;;;;;;;10.88;44.91;93968.72;2068181;69;20241;-70
2021/12/15 11:14:51;;;;;;;21.92;12.48;;;;;;;10.49;46.40;93953.63;2068168;69;20243;-70
2021/12/15 11:17:29;;;;;;;14.70;10.45;;;;;;;9.12;48.08;93961.19;2068317;69;20255;-71
2021/12/15 11:19:57;;;;;;;14.02;9.82;;;;;;;8.57;49.38;93956.41;2068218;69;20129;-70
2021/12/15 11:22:49;;;;;;;21.42;13.65;;;;;;;7.98;50.91;93957.50;2068058;69;20652;-71
2021/12/15 11:25:35;;;;;;;22.70;13.35;;;;;;;8.23;51.02;93960.41;2068304;69;20615;-71
2021/12/15 11:28:13;;;;;;;19.05;12.40;;;;;;;9.10;50.69;93956.13;2067781;69;20203;-68
2021/12/15 11:30:57;;;;;;;17.40;10.68;;;;;;;8.75;49.35;93955.22;2068319;69;20156;-71
2021/12/15 11:33:30;;;;;;;23.77;15.20;;;;;;;8.24;50.39;93953.50;2068178;69;20179;-69
2021/12/15 11:35:56;;;;;;;;;;;;;;;8.53;51.88;93948.38;2068335;69;20227;-69
2021/12/15 11:38:28;;;;;;;26.75;15.27;;;;;;;8.60;51.29;93950.38;2068208;69;20041;-72
2021/12/15 11:40:56;;;;;;;30.05;16.13;;;;;;;8.52;50.18;93943.31;2068186;69;20183;-70
2021/12/15 11:43:46;;;;;;;27.08;16.52;;;;;;;8.41;50.53;93947.28;2067730;69;20169;-70
2021/12/15 11:46:33;;;;;;;30.85;17.35;;;;;;;8.11;51.49;93942.53;2067627;69;20164;-73
2021/12/15 11:49:06;;;;;;;27.13;16.42;;;;;;;7.87;52.80;93946.66;2067585;69;20176;-68
2021/12/15 11:51:51;;;;;;;26.90;15.38;;;;;;;7.64;52.77;93943.91;2067071;69;20226;-75
2021/12/15 11:54:28;;;;;;;74.45;34.05;;;;;;;8.06;52.20;93933.00;2068581;69;20222;-70
2021/12/15 11:57:02;;;;;;;94.35;42.67;;;;;;;7.48;53.34;93937.56;2068239;69;20615;-70
2021/12/15 11:59:31;;;;;;;74.22;35.92;;;;;;;7.53;54.04;93936.63;2067662;69;20144;-70
2021/12/15 12:01:59;;;;;;;87.72;39.67;;;;;;;7.66;53.92;93938.50;2068124;69;20152;-72
2021/12/15 12:04:30;;;;;;;71.82;35.45;;;;;;;7.85;53.86;93929.66;2069687;69;20291;-73
2021/12/15 12:07:36;;;;;;;61.63;30.60;;;;;;;7.78;53.13;93928.34;2071424;69;20148;-73
2021/12/15 12:10:33;;;;;;;82.63;34.58;;;;;;;7.92;54.40;93928.16;2071475;69;20172;-69
2021/12/15 12:13:09;;;;;;;39.17;18.60;;;;;;;7.83;53.26;93933.03;2068176;69;20172;-67
2021/12/15 12:15:38;;;;;;;30.00;15.95;;;;;;;6.97;54.43;93927.28;2071549;69;20152;-70
2021/12/15 12:18:08;;;;;;;21.13;12.18;;;;;;;7.26;54.00;93929.91;2071466;69;20140;-70
2021/12/15 12:20:38;;;;;;;21.65;12.48;;;;;;;7.13;53.75;93923.16;2071328;69;20164;-69
2021/12/15 12:23:08;;;;;;;23.83;12.68;;;;;;;7.18;54.58;93929.91;2071498;69;20227;-75
2021/12/15 12:25:41;;;;;;;21.35;13.23;;;;;;;7.35;54.54;93923.75;2072382;69;20156;-73
2021/12/15 12:28:11;;;;;;;23.33;13.15;;;;;;;7.29;54.95;93926.75;2072639;69;20148;-70
2021/12/15 12:30:43;;;;;;;23.95;14.30;;;;;;;7.12;55.42;93924.47;2072572;69;20160;-72
2021/12/15 12:33:11;;;;;;;26.88;15.27;;;;;;;7.16;54.34;93928.97;2072688;69;20144;-73
2021/12/15 12:36:08;;;;;;;23.30;14.10;;;;;;;7.09;55.65;93920.00;2072496;69;20218;-73
2021/12/15 12:38:37;;;;;;;30.50;18.20;;;;;;;6.82;55.43;93925.19;2071701;69;20151;-71
2021/12/15 12:41:14;;;;;;;36.10;21.17;;;;;;;6.95;55.18;93915.88;2072606;69;20141;-71
2021/12/15 12:43:46;;;;;;;36.22;19.73;;;;;;;7.15;55.01;93919.81;2072507;69;20298;-73
2021/12/15 12:46:26;;;;;;;30.53;17.87;;;;;;;7.31;56.75;93910.09;2072616;69;20589;-73
2021/12/15 13:00:19;;;;;;;55.13;30.17;;;;;;;7.05;55.72;93914.00;2071516;69;20128;-70
2021/12/15 13:02:48;;;;;;;62.55;36.05;;;;;;;6.95;55.63;93906.72;2072000;69;20175;-70
2021/12/15 13:05:48;;;;;;;68.63;37.13;;;;;;;6.72;56.30;93901.84;2071527;69;20655;-71
2021/12/15 13:08:34;;;;;;;61.60;33.47;;;;;;;7.36;56.16;93908.41;2071663;69;20199;-70
2021/12/15 13:11:36;;;;;;;56.08;32.28;;;;;;;6.86;56.46;93914.38;2072518;69;20608;-71
2021/12/15 13:14:10;;;;;;;59.90;33.50;;;;;;;6.89;56.53;93912.50;2058423;69;20225;-69